X  Zamknij Lotniskowe dane METAR     EIDW Dublin Airport
Temperatura
12°C Temperatura
10°C Punkt rosy
88% Wilgotność



Wiatr
10 KM/H
6 MPH
3 M/S
5 KTS



250°
WSW
Warunki bieżące

Częściowe zachmurzenie Częściowe zachmurzenie
Ciśnienie 1012.92 (hPa) - 29.91 (inHg)
Widoczność 6.2 (mil) - 10 (km)
Lotnisko
Kod lotniska EIDW

Położenie: Dublin Airport
Odległość: 17 (km)

Metar:
EIDW 010130Z 25005KT 210V270 9999 FEW011 BKN080 12/10 Q1013 NOSIG

Czas: 01-07-2022 02:30 IST